New Orleans, LA (70160)

6:21 AM CST on March 02, 2015 (GMT -0600)
Freret St above Brottworks | Change Station
CLOSE
Current Station
Personal Weather Station
Location: New Orleans, LA
Elevation: 48 ft
Nearby Weather Stations
Active Advisory: Dense Fog Advisory

Elev 48 ft 29.93 °N, 90.11 °W | Updated 9 seconds ago

Fog
Fog
60.1 °F
Feels Like 60.1 °F
N
1.0
Wind Variable Wind from SSW
Gusts 5.0 mph

Today
High -- | Low -- °F
--% Chance of Precip.
Yesterday
High -- | Low -- °F
Precip. -- in
6:25 AM 6:00 PM
Waxing Gibbous, 91% visible
Pressure 30.26 in
Visibility 3.0 miles
Clouds Overcast 200 ft
Dew Point 60 °F
Humidity 99%
Rainfall 0.23 in
Snow Depth Not available.
UV 0 out of 12
Pollen 9.40 out of 12
Air Quality Not available.
Flu Activity Not available.
SPECI KNEW 021206Z AUTO 11007KT 3SM BR OVC002 16/14 A3026 RMK AO2 T01560139 TSNO

More Conditions Fewer Conditions

Pressure 30.26 in
Visibility 3.0 miles
Clouds Overcast 200 ft
Dew Point 60 °F
Humidity 99%
Rainfall 0.23 in
Snow Depth Not available.
UV 0 out of 12
Pollen 9.40 out of 12
Air Quality Not available.
Flu Activity Not available.
SPECI KNEW 021206Z AUTO 11007KT 3SM BR OVC002 16/14 A3026 RMK AO2 T01560139 TSNO

More Conditions Fewer Conditions

10-Day Weather Forecast

Almanac

Astronomy

Mar. 02, 2015 Rise Set
Actual Time
Civil Twilight
Nautical Twilight
Astronomical Twilight
Moon
Length of Visible Light
Length of Day
Tomorrow will be .
, % of the Moon is Illuminated

Today's Extremes

State Highs State Lows

Community

WunderPhotos

Upload Photos

1,801,772 photos uploaded!

WunderBlogs® & News

Nearby

Air Quality

  Air Quality AQ Index Pollutant
Not available.

Snow Depth

Station Depth Elevation

Earthquake Activity

City Distance Mag. Time & Date
Minimum magnitude displayed is 2.5.

Coastal Water Temperatures

Place Temperature

Nearby Weather Stations

Dense Fog Advisory
Statement as of 9:39 PM CST on March 01, 2015

... Dense fog advisory remains in effect until 9 am CST Monday...

* visibility... one quarter mile or less.

* Duration... areas of fog tonight through mid morning.

* Impacts... reduced visibilities on area roadways including both
interstates 10 and 12 and bridges over waterways.

Precautionary/preparedness actions...

A dense fog advisory means visibilities will frequently be
reduced to less than one quarter mile. If driving... slow down...
use your headlights... and leave plenty of distance ahead of you.